sensor_id;sensor_type;location;lat;lon;timestamp;temperature;humidity
2657;DHT22;1338;48.176;11.792;2023-04-06T00:00:29;-2.40;91.50
2657;DHT22;1338;48.176;11.792;2023-04-06T00:02:57;-2.50;77.90
2657;DHT22;1338;48.176;11.792;2023-04-06T00:05:27;-2.50;74.50
2657;DHT22;1338;48.176;11.792;2023-04-06T00:07:58;-2.50;80.40
2657;DHT22;1338;48.176;11.792;2023-04-06T00:10:27;-2.60;76.00
2657;DHT22;1338;48.176;11.792;2023-04-06T00:12:57;-2.50;91.90
2657;DHT22;1338;48.176;11.792;2023-04-06T00:15:26;-2.50;94.90
2657;DHT22;1338;48.176;11.792;2023-04-06T00:17:57;-2.40;95.90
2657;DHT22;1338;48.176;11.792;2023-04-06T00:20:26;-2.30;91.90
2657;DHT22;1338;48.176;11.792;2023-04-06T00:22:55;-2.40;77.90
2657;DHT22;1338;48.176;11.792;2023-04-06T00:25:23;-2.50;87.90
2657;DHT22;1338;48.176;11.792;2023-04-06T00:27:52;-2.70;91.60
2657;DHT22;1338;48.176;11.792;2023-04-06T00:30:21;-2.70;99.90
2657;DHT22;1338;48.176;11.792;2023-04-06T00:32:50;-2.60;99.90
2657;DHT22;1338;48.176;11.792;2023-04-06T00:35:21;-2.50;99.90
2657;DHT22;1338;48.176;11.792;2023-04-06T00:37:50;-2.50;99.90
2657;DHT22;1338;48.176;11.792;2023-04-06T00:40:19;-2.40;99.90
2657;DHT22;1338;48.176;11.792;2023-04-06T00:42:48;-2.50;99.90
2657;DHT22;1338;48.176;11.792;2023-04-06T00:45:17;-2.70;99.90
2657;DHT22;1338;48.176;11.792;2023-04-06T00:47:46;-2.80;99.90
2657;DHT22;1338;48.176;11.792;2023-04-06T00:50:15;-2.80;99.90
2657;DHT22;1338;48.176;11.792;2023-04-06T00:52:45;-2.90;99.90
2657;DHT22;1338;48.176;11.792;2023-04-06T00:55:14;-2.60;99.90
2657;DHT22;1338;48.176;11.792;2023-04-06T00:57:44;-2.70;99.90
2657;DHT22;1338;48.176;11.792;2023-04-06T01:00:14;-2.70;99.90
2657;DHT22;1338;48.176;11.792;2023-04-06T01:02:45;-2.80;99.90
2657;DHT22;1338;48.176;11.792;2023-04-06T01:05:19;-2.90;99.90
2657;DHT22;1338;48.176;11.792;2023-04-06T01:07:56;-2.90;99.90
2657;DHT22;1338;48.176;11.792;2023-04-06T01:10:28;-2.90;99.90
2657;DHT22;1338;48.176;11.792;2023-04-06T01:13:10;-2.80;99.90
2657;DHT22;1338;48.176;11.792;2023-04-06T01:16:08;-2.70;99.90
2657;DHT22;1338;48.176;11.792;2023-04-06T01:18:47;-2.70;99.90
2657;DHT22;1338;48.176;11.792;2023-04-06T01:21:21;-2.80;99.90
2657;DHT22;1338;48.176;11.792;2023-04-06T01:24:14;-2.70;99.90
2657;DHT22;1338;48.176;11.792;2023-04-06T01:26:56;-2.80;99.90
2657;DHT22;1338;48.176;11.792;2023-04-06T01:29:31;-2.90;99.90
2657;DHT22;1338;48.176;11.792;2023-04-06T01:32:04;-2.90;99.90
2657;DHT22;1338;48.176;11.792;2023-04-06T01:34:38;-3.00;99.90
2657;DHT22;1338;48.176;11.792;2023-04-06T01:37:07;-3.10;99.90
2657;DHT22;1338;48.176;11.792;2023-04-06T01:39:38;-3.10;99.90
2657;DHT22;1338;48.176;11.792;2023-04-06T01:42:09;-3.10;99.90
2657;DHT22;1338;48.176;11.792;2023-04-06T01:44:39;-2.90;99.90
2657;DHT22;1338;48.176;11.792;2023-04-06T01:47:12;-2.80;99.90
2657;DHT22;1338;48.176;11.792;2023-04-06T01:49:41;-2.70;99.90
2657;DHT22;1338;48.176;11.792;2023-04-06T01:52:11;-2.80;99.90
2657;DHT22;1338;48.176;11.792;2023-04-06T01:54:45;-2.90;99.90
2657;DHT22;1338;48.176;11.792;2023-04-06T01:57:20;-3.00;99.90
2657;DHT22;1338;48.176;11.792;2023-04-06T01:59:56;-2.90;99.90
2657;DHT22;1338;48.176;11.792;2023-04-06T02:02:39;-2.90;99.90
2657;DHT22;1338;48.176;11.792;2023-04-06T02:05:17;-2.80;99.90
2657;DHT22;1338;48.176;11.792;2023-04-06T02:07:46;-3.00;99.90
2657;DHT22;1338;48.176;11.792;2023-04-06T02:10:21;-3.00;99.90
2657;DHT22;1338;48.176;11.792;2023-04-06T02:12:53;-2.90;99.90
2657;DHT22;1338;48.176;11.792;2023-04-06T02:15:26;-3.00;99.90
2657;DHT22;1338;48.176;11.792;2023-04-06T02:17:55;-3.00;99.90
2657;DHT22;1338;48.176;11.792;2023-04-06T02:20:24;-2.90;99.90
2657;DHT22;1338;48.176;11.792;2023-04-06T02:22:53;-2.90;99.90
2657;DHT22;1338;48.176;11.792;2023-04-06T02:25:23;-2.90;99.90
2657;DHT22;1338;48.176;11.792;2023-04-06T02:27:52;-2.90;99.90
2657;DHT22;1338;48.176;11.792;2023-04-06T02:30:21;-2.90;99.90
2657;DHT22;1338;48.176;11.792;2023-04-06T02:32:50;-3.00;99.90
2657;DHT22;1338;48.176;11.792;2023-04-06T02:35:20;-3.00;99.90
2657;DHT22;1338;48.176;11.792;2023-04-06T02:37:53;-3.10;99.90
2657;DHT22;1338;48.176;11.792;2023-04-06T02:40:25;-3.10;99.90
2657;DHT22;1338;48.176;11.792;2023-04-06T02:42:56;-3.20;99.90
2657;DHT22;1338;48.176;11.792;2023-04-06T02:45:30;-3.20;99.90
2657;DHT22;1338;48.176;11.792;2023-04-06T02:48:01;-3.10;99.90
2657;DHT22;1338;48.176;11.792;2023-04-06T02:50:31;-3.10;99.90
2657;DHT22;1338;48.176;11.792;2023-04-06T02:53:03;-3.00;99.90
2657;DHT22;1338;48.176;11.792;2023-04-06T02:55:35;-3.10;99.90
2657;DHT22;1338;48.176;11.792;2023-04-06T02:58:06;-3.20;99.90
2657;DHT22;1338;48.176;11.792;2023-04-06T03:00:43;-3.20;99.90
2657;DHT22;1338;48.176;11.792;2023-04-06T03:03:11;-3.20;99.90
2657;DHT22;1338;48.176;11.792;2023-04-06T03:05:42;-3.20;99.90
2657;DHT22;1338;48.176;11.792;2023-04-06T03:08:11;-3.30;99.90
2657;DHT22;1338;48.176;11.792;2023-04-06T03:10:45;-3.10;99.90
2657;DHT22;1338;48.176;11.792;2023-04-06T03:13:16;-3.30;99.90
2657;DHT22;1338;48.176;11.792;2023-04-06T03:15:51;-3.30;99.90
2657;DHT22;1338;48.176;11.792;2023-04-06T03:18:22;-3.30;99.90
2657;DHT22;1338;48.176;11.792;2023-04-06T03:20:52;-3.20;99.90
2657;DHT22;1338;48.176;11.792;2023-04-06T03:23:27;-3.20;99.90
2657;DHT22;1338;48.176;11.792;2023-04-06T03:26:01;-3.20;99.90
2657;DHT22;1338;48.176;11.792;2023-04-06T03:28:29;-3.40;99.90
2657;DHT22;1338;48.176;11.792;2023-04-06T03:31:02;-3.40;99.90
2657;DHT22;1338;48.176;11.792;2023-04-06T03:33:45;-3.30;99.90
2657;DHT22;1338;48.176;11.792;2023-04-06T03:36:21;-3.40;99.90
2657;DHT22;1338;48.176;11.792;2023-04-06T03:38:50;-3.50;99.90
2657;DHT22;1338;48.176;11.792;2023-04-06T03:41:22;-3.50;99.90
2657;DHT22;1338;48.176;11.792;2023-04-06T03:44:00;-3.40;99.90
2657;DHT22;1338;48.176;11.792;2023-04-06T03:46:29;-3.40;99.90
2657;DHT22;1338;48.176;11.792;2023-04-06T03:48:59;-3.30;99.90
2657;DHT22;1338;48.176;11.792;2023-04-06T03:51:28;-3.30;99.90
2657;DHT22;1338;48.176;11.792;2023-04-06T03:53:57;-3.20;99.90
2657;DHT22;1338;48.176;11.792;2023-04-06T03:56:28;-3.30;99.90
2657;DHT22;1338;48.176;11.792;2023-04-06T03:58:58;-3.30;99.90
2657;DHT22;1338;48.176;11.792;2023-04-06T04:01:27;-3.20;99.90
2657;DHT22;1338;48.176;11.792;2023-04-06T04:03:55;-3.20;99.90
2657;DHT22;1338;48.176;11.792;2023-04-06T04:09:00;-3.20;99.90
2657;DHT22;1338;48.176;11.792;2023-04-06T04:11:29;-3.20;99.90
2657;DHT22;1338;48.176;11.792;2023-04-06T04:13:59;-3.20;99.90
2657;DHT22;1338;48.176;11.792;2023-04-06T04:16:28;-3.30;99.90
2657;DHT22;1338;48.176;11.792;2023-04-06T04:18:56;-3.30;99.90
2657;DHT22;1338;48.176;11.792;2023-04-06T04:21:27;-3.30;99.90
2657;DHT22;1338;48.176;11.792;2023-04-06T04:23:56;-3.30;99.90
2657;DHT22;1338;48.176;11.792;2023-04-06T04:26:24;-3.20;99.90
2657;DHT22;1338;48.176;11.792;2023-04-06T04:28:55;-3.20;99.90
2657;DHT22;1338;48.176;11.792;2023-04-06T04:31:23;-3.10;99.90
2657;DHT22;1338;48.176;11.792;2023-04-06T04:33:56;-3.30;99.90
2657;DHT22;1338;48.176;11.792;2023-04-06T04:36:28;-3.40;99.90
2657;DHT22;1338;48.176;11.792;2023-04-06T04:39:00;-3.40;99.90
2657;DHT22;1338;48.176;11.792;2023-04-06T04:41:33;-3.30;99.90
2657;DHT22;1338;48.176;11.792;2023-04-06T04:44:06;-3.30;99.90
2657;DHT22;1338;48.176;11.792;2023-04-06T04:46:34;-3.50;99.90
2657;DHT22;1338;48.176;11.792;2023-04-06T04:49:03;-3.50;99.90
2657;DHT22;1338;48.176;11.792;2023-04-06T04:51:32;-3.40;99.90
2657;DHT22;1338;48.176;11.792;2023-04-06T04:54:06;-3.40;99.90
2657;DHT22;1338;48.176;11.792;2023-04-06T04:56:34;-3.20;99.90
2657;DHT22;1338;48.176;11.792;2023-04-06T04:59:34;-3.20;99.90
2657;DHT22;1338;48.176;11.792;2023-04-06T05:02:11;-3.20;99.90
2657;DHT22;1338;48.176;11.792;2023-04-06T05:04:59;-3.20;99.90
2657;DHT22;1338;48.176;11.792;2023-04-06T05:07:28;-3.10;99.90
2657;DHT22;1338;48.176;11.792;2023-04-06T05:09:59;-3.10;99.90
2657;DHT22;1338;48.176;11.792;2023-04-06T05:12:32;-3.10;99.90
2657;DHT22;1338;48.176;11.792;2023-04-06T05:15:10;-3.00;99.90
2657;DHT22;1338;48.176;11.792;2023-04-06T05:17:39;-3.00;99.90
2657;DHT22;1338;48.176;11.792;2023-04-06T05:20:11;-2.80;99.90
2657;DHT22;1338;48.176;11.792;2023-04-06T05:22:45;-2.90;99.90
2657;DHT22;1338;48.176;11.792;2023-04-06T05:25:14;-2.80;99.90
2657;DHT22;1338;48.176;11.792;2023-04-06T05:27:45;-2.70;99.90
2657;DHT22;1338;48.176;11.792;2023-04-06T05:30:27;-2.60;99.90
2657;DHT22;1338;48.176;11.792;2023-04-06T05:32:55;-2.60;99.90
2657;DHT22;1338;48.176;11.792;2023-04-06T05:35:26;-2.40;99.90
2657;DHT22;1338;48.176;11.792;2023-04-06T05:37:59;-2.20;99.90
2657;DHT22;1338;48.176;11.792;2023-04-06T05:40:27;-2.20;99.90
2657;DHT22;1338;48.176;11.792;2023-04-06T05:42:56;-2.10;99.90
2657;DHT22;1338;48.176;11.792;2023-04-06T05:45:24;-2.20;99.90
2657;DHT22;1338;48.176;11.792;2023-04-06T05:47:56;-2.20;99.90
2657;DHT22;1338;48.176;11.792;2023-04-06T05:50:28;-2.00;99.90
2657;DHT22;1338;48.176;11.792;2023-04-06T05:52:57;-2.00;99.90
2657;DHT22;1338;48.176;11.792;2023-04-06T05:55:30;-1.80;99.90
2657;DHT22;1338;48.176;11.792;2023-04-06T05:58:09;-1.70;99.90
2657;DHT22;1338;48.176;11.792;2023-04-06T06:00:38;-1.60;99.90
2657;DHT22;1338;48.176;11.792;2023-04-06T06:03:09;-1.60;99.90
2657;DHT22;1338;48.176;11.792;2023-04-06T06:05:41;-1.50;99.90
2657;DHT22;1338;48.176;11.792;2023-04-06T06:08:14;-1.50;99.90
2657;DHT22;1338;48.176;11.792;2023-04-06T06:10:43;-1.40;99.90
2657;DHT22;1338;48.176;11.792;2023-04-06T06:13:12;-1.30;99.90
2657;DHT22;1338;48.176;11.792;2023-04-06T06:15:40;-1.20;99.90
2657;DHT22;1338;48.176;11.792;2023-04-06T06:18:10;-1.10;95.20
2657;DHT22;1338;48.176;11.792;2023-04-06T06:20:39;-1.00;96.60
2657;DHT22;1338;48.176;11.792;2023-04-06T06:23:08;-0.80;94.20
2657;DHT22;1338;48.176;11.792;2023-04-06T06:25:36;-0.70;92.40
2657;DHT22;1338;48.176;11.792;2023-04-06T06:28:05;-0.60;77.60
2657;DHT22;1338;48.176;11.792;2023-04-06T06:30:33;-0.50;63.30
2657;DHT22;1338;48.176;11.792;2023-04-06T06:33:02;-0.30;53.60
2657;DHT22;1338;48.176;11.792;2023-04-06T06:35:31;-0.10;31.00
2657;DHT22;1338;48.176;11.792;2023-04-06T06:38:02;0.00;40.60
2657;DHT22;1338;48.176;11.792;2023-04-06T06:40:31;0.20;72.80
2657;DHT22;1338;48.176;11.792;2023-04-06T06:43:00;0.20;38.90
2657;DHT22;1338;48.176;11.792;2023-04-06T06:45:46;0.30;40.30
2657;DHT22;1338;48.176;11.792;2023-04-06T06:48:14;0.40;36.00
2657;DHT22;1338;48.176;11.792;2023-04-06T06:50:44;0.50;22.50
2657;DHT22;1338;48.176;11.792;2023-04-06T06:53:12;0.70;13.10
2657;DHT22;1338;48.176;11.792;2023-04-06T06:55:40;0.80;1.00
2657;DHT22;1338;48.176;11.792;2023-04-06T06:58:11;0.80;1.00
2657;DHT22;1338;48.176;11.792;2023-04-06T07:00:39;1.00;1.00
2657;DHT22;1338;48.176;11.792;2023-04-06T07:03:07;1.30;1.00
2657;DHT22;1338;48.176;11.792;2023-04-06T07:05:36;1.50;1.00
2657;DHT22;1338;48.176;11.792;2023-04-06T07:08:08;1.70;1.00
2657;DHT22;1338;48.176;11.792;2023-04-06T07:10:37;1.80;1.00
2657;DHT22;1338;48.176;11.792;2023-04-06T07:13:05;2.80;20.00
2657;DHT22;1338;48.176;11.792;2023-04-06T07:15:33;2.60;1.00
2657;DHT22;1338;48.176;11.792;2023-04-06T07:18:02;2.80;1.00
2657;DHT22;1338;48.176;11.792;2023-04-06T07:20:30;2.50;1.00
2657;DHT22;1338;48.176;11.792;2023-04-06T07:22:59;2.40;1.00
2657;DHT22;1338;48.176;11.792;2023-04-06T07:25:30;2.40;1.00
2657;DHT22;1338;48.176;11.792;2023-04-06T07:27:58;2.60;1.00
2657;DHT22;1338;48.176;11.792;2023-04-06T07:30:27;2.60;1.00
2657;DHT22;1338;48.176;11.792;2023-04-06T07:32:59;2.70;1.00
2657;DHT22;1338;48.176;11.792;2023-04-06T07:35:28;2.80;1.00
2657;DHT22;1338;48.176;11.792;2023-04-06T07:37:57;2.90;1.00
2657;DHT22;1338;48.176;11.792;2023-04-06T07:40:26;3.00;1.00
2657;DHT22;1338;48.176;11.792;2023-04-06T07:42:57;3.30;1.00
2657;DHT22;1338;48.176;11.792;2023-04-06T07:45:26;3.40;1.00
2657;DHT22;1338;48.176;11.792;2023-04-06T07:47:55;3.50;1.00
2657;DHT22;1338;48.176;11.792;2023-04-06T07:50:25;3.60;1.00
2657;DHT22;1338;48.176;11.792;2023-04-06T07:52:54;3.70;1.00
2657;DHT22;1338;48.176;11.792;2023-04-06T07:55:23;3.70;1.00
2657;DHT22;1338;48.176;11.792;2023-04-06T07:57:51;4.00;1.00
2657;DHT22;1338;48.176;11.792;2023-04-06T08:00:21;4.00;1.00
2657;DHT22;1338;48.176;11.792;2023-04-06T08:02:50;4.10;1.00
2657;DHT22;1338;48.176;11.792;2023-04-06T08:05:18;4.40;1.00
2657;DHT22;1338;48.176;11.792;2023-04-06T08:07:47;4.50;1.00
2657;DHT22;1338;48.176;11.792;2023-04-06T08:10:15;4.50;1.00
2657;DHT22;1338;48.176;11.792;2023-04-06T08:12:44;4.40;1.00
2657;DHT22;1338;48.176;11.792;2023-04-06T08:15:12;4.60;1.00
2657;DHT22;1338;48.176;11.792;2023-04-06T08:17:41;4.70;1.00
2657;DHT22;1338;48.176;11.792;2023-04-06T08:20:10;5.00;1.00
2657;DHT22;1338;48.176;11.792;2023-04-06T08:22:38;5.10;1.00
2657;DHT22;1338;48.176;11.792;2023-04-06T08:25:07;5.10;1.00
2657;DHT22;1338;48.176;11.792;2023-04-06T08:27:35;5.20;1.00
2657;DHT22;1338;48.176;11.792;2023-04-06T08:30:04;5.40;1.00
2657;DHT22;1338;48.176;11.792;2023-04-06T08:32:33;5.40;1.00
2657;DHT22;1338;48.176;11.792;2023-04-06T08:35:03;5.80;1.00
2657;DHT22;1338;48.176;11.792;2023-04-06T08:37:32;5.70;1.00
2657;DHT22;1338;48.176;11.792;2023-04-06T08:40:00;5.70;1.00
2657;DHT22;1338;48.176;11.792;2023-04-06T08:42:32;5.90;1.00
2657;DHT22;1338;48.176;11.792;2023-04-06T08:45:01;6.10;1.00
2657;DHT22;1338;48.176;11.792;2023-04-06T08:47:29;6.20;1.00
2657;DHT22;1338;48.176;11.792;2023-04-06T08:49:59;6.20;1.00
2657;DHT22;1338;48.176;11.792;2023-04-06T08:52:32;6.20;1.00
2657;DHT22;1338;48.176;11.792;2023-04-06T08:55:00;6.20;1.00
2657;DHT22;1338;48.176;11.792;2023-04-06T08:57:29;6.70;1.00
2657;DHT22;1338;48.176;11.792;2023-04-06T08:59:58;6.30;1.00
2657;DHT22;1338;48.176;11.792;2023-04-06T09:02:28;6.30;1.00
2657;DHT22;1338;48.176;11.792;2023-04-06T09:04:58;6.70;1.00
2657;DHT22;1338;48.176;11.792;2023-04-06T09:07:28;7.00;1.00
2657;DHT22;1338;48.176;11.792;2023-04-06T09:09:59;7.00;1.00
2657;DHT22;1338;48.176;11.792;2023-04-06T09:12:29;6.60;1.00
2657;DHT22;1338;48.176;11.792;2023-04-06T09:14:58;6.60;1.00
2657;DHT22;1338;48.176;11.792;2023-04-06T09:17:28;6.90;1.00
2657;DHT22;1338;48.176;11.792;2023-04-06T09:19:59;6.90;1.00
2657;DHT22;1338;48.176;11.792;2023-04-06T09:22:35;7.00;1.00
2657;DHT22;1338;48.176;11.792;2023-04-06T09:25:08;7.10;1.00
2657;DHT22;1338;48.176;11.792;2023-04-06T09:27:37;7.40;1.00
2657;DHT22;1338;48.176;11.792;2023-04-06T09:30:07;7.40;1.00
2657;DHT22;1338;48.176;11.792;2023-04-06T09:32:47;7.20;1.00
2657;DHT22;1338;48.176;11.792;2023-04-06T09:35:16;7.20;1.00
2657;DHT22;1338;48.176;11.792;2023-04-06T09:37:47;7.60;1.00
2657;DHT22;1338;48.176;11.792;2023-04-06T09:40:17;7.50;1.00
2657;DHT22;1338;48.176;11.792;2023-04-06T09:42:47;7.90;1.00
2657;DHT22;1338;48.176;11.792;2023-04-06T09:45:17;7.60;1.00
2657;DHT22;1338;48.176;11.792;2023-04-06T09:47:45;7.90;1.00
2657;DHT22;1338;48.176;11.792;2023-04-06T09:50:14;8.00;1.00
2657;DHT22;1338;48.176;11.792;2023-04-06T09:52:51;8.10;1.00
2657;DHT22;1338;48.176;11.792;2023-04-06T09:55:31;8.20;1.00
2657;DHT22;1338;48.176;11.792;2023-04-06T09:58:04;8.40;1.00
2657;DHT22;1338;48.176;11.792;2023-04-06T10:00:42;8.20;1.00
2657;DHT22;1338;48.176;11.792;2023-04-06T10:03:18;8.30;1.00
2657;DHT22;1338;48.176;11.792;2023-04-06T10:05:52;8.30;1.00
2657;DHT22;1338;48.176;11.792;2023-04-06T10:08:24;8.50;1.00
2657;DHT22;1338;48.176;11.792;2023-04-06T10:11:00;8.20;1.00
2657;DHT22;1338;48.176;11.792;2023-04-06T10:13:28;8.60;1.00
2657;DHT22;1338;48.176;11.792;2023-04-06T10:15:57;9.10;1.00
2657;DHT22;1338;48.176;11.792;2023-04-06T10:18:28;9.40;1.00
2657;DHT22;1338;48.176;11.792;2023-04-06T10:21:04;9.80;1.00
2657;DHT22;1338;48.176;11.792;2023-04-06T10:23:35;10.30;1.00
2657;DHT22;1338;48.176;11.792;2023-04-06T10:26:05;10.30;1.00
2657;DHT22;1338;48.176;11.792;2023-04-06T10:28:42;10.00;1.00
2657;DHT22;1338;48.176;11.792;2023-04-06T10:31:10;9.10;1.00
2657;DHT22;1338;48.176;11.792;2023-04-06T10:33:39;9.00;1.00
2657;DHT22;1338;48.176;11.792;2023-04-06T10:36:12;10.10;1.00
2657;DHT22;1338;48.176;11.792;2023-04-06T10:38:41;9.40;1.00
2657;DHT22;1338;48.176;11.792;2023-04-06T10:41:12;9.60;1.00
2657;DHT22;1338;48.176;11.792;2023-04-06T10:43:41;9.80;1.00
2657;DHT22;1338;48.176;11.792;2023-04-06T10:46:10;9.40;1.00
2657;DHT22;1338;48.176;11.792;2023-04-06T10:48:39;9.80;1.00
2657;DHT22;1338;48.176;11.792;2023-04-06T10:51:11;9.20;1.00
2657;DHT22;1338;48.176;11.792;2023-04-06T10:53:42;10.20;1.00
2657;DHT22;1338;48.176;11.792;2023-04-06T10:56:13;10.20;1.00
2657;DHT22;1338;48.176;11.792;2023-04-06T10:58:44;9.80;1.00
2657;DHT22;1338;48.176;11.792;2023-04-06T11:01:15;10.20;1.00
2657;DHT22;1338;48.176;11.792;2023-04-06T11:03:44;10.50;1.00
2657;DHT22;1338;48.176;11.792;2023-04-06T11:06:18;10.20;1.00
2657;DHT22;1338;48.176;11.792;2023-04-06T11:08:46;10.20;1.00
2657;DHT22;1338;48.176;11.792;2023-04-06T11:11:18;10.00;1.00
2657;DHT22;1338;48.176;11.792;2023-04-06T11:13:49;9.90;1.00
2657;DHT22;1338;48.176;11.792;2023-04-06T11:16:19;10.60;1.00
2657;DHT22;1338;48.176;11.792;2023-04-06T11:18:49;9.70;1.00
2657;DHT22;1338;48.176;11.792;2023-04-06T11:21:18;10.70;1.00
2657;DHT22;1338;48.176;11.792;2023-04-06T11:23:46;10.50;1.00
2657;DHT22;1338;48.176;11.792;2023-04-06T11:26:16;10.90;1.00
2657;DHT22;1338;48.176;11.792;2023-04-06T11:28:44;11.20;1.00
2657;DHT22;1338;48.176;11.792;2023-04-06T11:31:13;11.70;1.00
2657;DHT22;1338;48.176;11.792;2023-04-06T11:33:41;12.30;1.00
2657;DHT22;1338;48.176;11.792;2023-04-06T11:36:09;11.00;1.00
2657;DHT22;1338;48.176;11.792;2023-04-06T11:38:40;10.10;1.00
2657;DHT22;1338;48.176;11.792;2023-04-06T11:41:09;10.00;1.00
2657;DHT22;1338;48.176;11.792;2023-04-06T11:43:46;10.70;1.00
2657;DHT22;1338;48.176;11.792;2023-04-06T11:46:18;11.90;1.00
2657;DHT22;1338;48.176;11.792;2023-04-06T11:48:47;12.10;1.00
2657;DHT22;1338;48.176;11.792;2023-04-06T11:51:22;11.40;1.00
2657;DHT22;1338;48.176;11.792;2023-04-06T11:53:51;11.70;1.00
2657;DHT22;1338;48.176;11.792;2023-04-06T11:56:24;11.20;1.00
2657;DHT22;1338;48.176;11.792;2023-04-06T11:58:55;12.00;1.00
2657;DHT22;1338;48.176;11.792;2023-04-06T12:01:24;11.70;1.00
2657;DHT22;1338;48.176;11.792;2023-04-06T12:03:53;12.40;1.00
2657;DHT22;1338;48.176;11.792;2023-04-06T12:06:22;12.60;1.00
2657;DHT22;1338;48.176;11.792;2023-04-06T12:08:50;11.80;1.00
2657;DHT22;1338;48.176;11.792;2023-04-06T12:11:19;12.40;1.00
2657;DHT22;1338;48.176;11.792;2023-04-06T12:13:48;13.10;1.00
2657;DHT22;1338;48.176;11.792;2023-04-06T12:16:18;13.00;1.00
2657;DHT22;1338;48.176;11.792;2023-04-06T12:18:47;12.50;1.00
2657;DHT22;1338;48.176;11.792;2023-04-06T12:21:15;12.30;1.00
2657;DHT22;1338;48.176;11.792;2023-04-06T12:23:44;13.10;1.00
2657;DHT22;1338;48.176;11.792;2023-04-06T12:26:12;12.90;1.00
2657;DHT22;1338;48.176;11.792;2023-04-06T12:28:40;12.40;1.00
2657;DHT22;1338;48.176;11.792;2023-04-06T12:31:14;12.70;1.00
2657;DHT22;1338;48.176;11.792;2023-04-06T12:33:46;13.10;1.00
2657;DHT22;1338;48.176;11.792;2023-04-06T12:36:15;13.40;1.00
2657;DHT22;1338;48.176;11.792;2023-04-06T12:38:47;14.40;1.00
2657;DHT22;1338;48.176;11.792;2023-04-06T12:41:16;14.40;1.00
2657;DHT22;1338;48.176;11.792;2023-04-06T12:43:45;13.10;1.00
2657;DHT22;1338;48.176;11.792;2023-04-06T12:46:13;12.80;1.00
2657;DHT22;1338;48.176;11.792;2023-04-06T12:48:43;12.30;1.00
2657;DHT22;1338;48.176;11.792;2023-04-06T12:51:12;12.10;1.00
2657;DHT22;1338;48.176;11.792;2023-04-06T12:53:40;10.80;1.00
2657;DHT22;1338;48.176;11.792;2023-04-06T12:56:16;10.10;1.00
2657;DHT22;1338;48.176;11.792;2023-04-06T12:58:45;11.40;1.00
2657;DHT22;1338;48.176;11.792;2023-04-06T13:01:13;13.00;1.00
2657;DHT22;1338;48.176;11.792;2023-04-06T13:03:43;13.70;1.00
2657;DHT22;1338;48.176;11.792;2023-04-06T13:06:12;13.70;1.00
2657;DHT22;1338;48.176;11.792;2023-04-06T13:08:42;14.60;1.00
2657;DHT22;1338;48.176;11.792;2023-04-06T13:11:10;15.20;1.00
2657;DHT22;1338;48.176;11.792;2023-04-06T13:13:39;15.10;1.00
2657;DHT22;1338;48.176;11.792;2023-04-06T13:16:08;15.30;1.00
2657;DHT22;1338;48.176;11.792;2023-04-06T13:18:37;14.30;1.00
2657;DHT22;1338;48.176;11.792;2023-04-06T13:21:08;13.00;1.00
2657;DHT22;1338;48.176;11.792;2023-04-06T13:23:36;11.10;1.00
2657;DHT22;1338;48.176;11.792;2023-04-06T13:26:06;11.60;1.00
2657;DHT22;1338;48.176;11.792;2023-04-06T13:28:35;11.30;1.00
2657;DHT22;1338;48.176;11.792;2023-04-06T13:31:06;11.30;1.00
2657;DHT22;1338;48.176;11.792;2023-04-06T13:33:35;12.70;1.00
2657;DHT22;1338;48.176;11.792;2023-04-06T13:36:04;13.60;1.00
2657;DHT22;1338;48.176;11.792;2023-04-06T13:38:35;12.30;1.00
2657;DHT22;1338;48.176;11.792;2023-04-06T13:41:05;13.00;1.00
2657;DHT22;1338;48.176;11.792;2023-04-06T13:43:34;14.00;1.00
2657;DHT22;1338;48.176;11.792;2023-04-06T13:46:02;13.30;1.00
2657;DHT22;1338;48.176;11.792;2023-04-06T13:48:30;13.90;1.00
2657;DHT22;1338;48.176;11.792;2023-04-06T13:51:08;13.30;1.00
2657;DHT22;1338;48.176;11.792;2023-04-06T13:53:38;14.60;1.00
2657;DHT22;1338;48.176;11.792;2023-04-06T13:56:07;13.00;1.00
2657;DHT22;1338;48.176;11.792;2023-04-06T13:58:36;14.90;1.00
2657;DHT22;1338;48.176;11.792;2023-04-06T14:01:05;15.90;1.00
2657;DHT22;1338;48.176;11.792;2023-04-06T14:03:34;12.80;1.00
2657;DHT22;1338;48.176;11.792;2023-04-06T14:06:10;12.90;1.00
2657;DHT22;1338;48.176;11.792;2023-04-06T14:08:54;12.40;1.00
2657;DHT22;1338;48.176;11.792;2023-04-06T14:11:23;12.40;1.00
2657;DHT22;1338;48.176;11.792;2023-04-06T14:13:51;13.20;1.00
2657;DHT22;1338;48.176;11.792;2023-04-06T14:16:23;13.40;1.00
2657;DHT22;1338;48.176;11.792;2023-04-06T14:18:51;12.50;1.00
2657;DHT22;1338;48.176;11.792;2023-04-06T14:21:20;14.10;1.00
2657;DHT22;1338;48.176;11.792;2023-04-06T14:23:48;14.30;1.00
2657;DHT22;1338;48.176;11.792;2023-04-06T14:26:18;15.90;1.00
2657;DHT22;1338;48.176;11.792;2023-04-06T14:28:46;15.90;1.00
2657;DHT22;1338;48.176;11.792;2023-04-06T14:31:15;15.30;1.00
2657;DHT22;1338;48.176;11.792;2023-04-06T14:33:44;16.60;1.00
2657;DHT22;1338;48.176;11.792;2023-04-06T14:36:13;17.10;1.00
2657;DHT22;1338;48.176;11.792;2023-04-06T14:38:41;14.70;1.00
2657;DHT22;1338;48.176;11.792;2023-04-06T14:41:17;14.50;1.00
2657;DHT22;1338;48.176;11.792;2023-04-06T14:43:47;15.20;1.00
2657;DHT22;1338;48.176;11.792;2023-04-06T14:46:15;14.80;1.00
2657;DHT22;1338;48.176;11.792;2023-04-06T14:48:44;14.40;1.00
2657;DHT22;1338;48.176;11.792;2023-04-06T14:51:12;14.60;1.00
2657;DHT22;1338;48.176;11.792;2023-04-06T14:53:41;13.80;1.00
2657;DHT22;1338;48.176;11.792;2023-04-06T14:56:09;13.60;1.00
2657;DHT22;1338;48.176;11.792;2023-04-06T14:58:37;15.60;1.00
2657;DHT22;1338;48.176;11.792;2023-04-06T15:01:07;17.80;1.00
2657;DHT22;1338;48.176;11.792;2023-04-06T15:03:35;14.80;1.00
2657;DHT22;1338;48.176;11.792;2023-04-06T15:06:04;13.10;1.00
2657;DHT22;1338;48.176;11.792;2023-04-06T15:08:32;13.80;1.00
2657;DHT22;1338;48.176;11.792;2023-04-06T15:11:01;15.10;1.00
2657;DHT22;1338;48.176;11.792;2023-04-06T15:13:29;16.90;1.00
2657;DHT22;1338;48.176;11.792;2023-04-06T15:15:57;16.80;1.00
2657;DHT22;1338;48.176;11.792;2023-04-06T15:18:29;15.00;1.00
2657;DHT22;1338;48.176;11.792;2023-04-06T15:20:57;14.00;1.00
2657;DHT22;1338;48.176;11.792;2023-04-06T15:23:25;14.10;1.00
2657;DHT22;1338;48.176;11.792;2023-04-06T15:25:56;14.20;1.00
2657;DHT22;1338;48.176;11.792;2023-04-06T15:28:24;15.20;1.00
2657;DHT22;1338;48.176;11.792;2023-04-06T15:30:53;14.10;1.00
2657;DHT22;1338;48.176;11.792;2023-04-06T15:33:22;14.80;1.00
2657;DHT22;1338;48.176;11.792;2023-04-06T15:35:52;14.70;1.00
2657;DHT22;1338;48.176;11.792;2023-04-06T15:38:20;13.60;1.00
2657;DHT22;1338;48.176;11.792;2023-04-06T15:40:49;13.70;1.00
2657;DHT22;1338;48.176;11.792;2023-04-06T15:43:17;13.90;1.00
2657;DHT22;1338;48.176;11.792;2023-04-06T15:45:45;14.60;1.00
2657;DHT22;1338;48.176;11.792;2023-04-06T15:48:13;13.60;1.00
2657;DHT22;1338;48.176;11.792;2023-04-06T15:50:41;13.50;1.00
2657;DHT22;1338;48.176;11.792;2023-04-06T15:53:11;12.30;1.00
2657;DHT22;1338;48.176;11.792;2023-04-06T15:55:39;11.30;1.00
2657;DHT22;1338;48.176;11.792;2023-04-06T15:58:07;11.00;1.00
2657;DHT22;1338;48.176;11.792;2023-04-06T16:00:35;11.30;1.00
2657;DHT22;1338;48.176;11.792;2023-04-06T16:03:03;11.00;1.00
2657;DHT22;1338;48.176;11.792;2023-04-06T16:05:32;11.30;1.00
2657;DHT22;1338;48.176;11.792;2023-04-06T16:08:16;11.50;1.00
2657;DHT22;1338;48.176;11.792;2023-04-06T16:10:45;10.90;1.00
2657;DHT22;1338;48.176;11.792;2023-04-06T16:13:13;11.00;1.00
2657;DHT22;1338;48.176;11.792;2023-04-06T16:15:41;11.80;1.00
2657;DHT22;1338;48.176;11.792;2023-04-06T16:18:09;12.80;1.00
2657;DHT22;1338;48.176;11.792;2023-04-06T16:20:38;13.70;1.00
2657;DHT22;1338;48.176;11.792;2023-04-06T16:23:06;12.60;1.00